Time;durP1;ratioP1;P1;durP2;ratioP2;P2;SDS_P1;SDS_P2;PMS_P1;PMS_P2;Temp;Humidity;BMP_temperature;BMP_pressure;BME280_temperature;BME280_humidity;BME280_pressure;Samples;Min_cycle;Max_cycle;Signal;HPM_P1;HPM_P2
2021/05/03 00:01:43;;;;;;;0.03;0.03;;;6.40;99.90;;;;;;5076727;28;20031;-77
2021/05/03 00:04:09;;;;;;;0.63;0.38;;;6.70;99.90;;;;;;5070399;28;20040;-77
2021/05/03 00:06:34;;;;;;;0.10;0.10;;;6.70;99.90;;;;;;5062688;28;20020;-78
2021/05/03 00:09:00;;;;;;;0.40;0.40;;;6.60;99.90;;;;;;5080321;28;20059;-77
2021/05/03 00:11:26;;;;;;;0.20;0.20;;;6.50;99.90;;;;;;5089015;28;20063;-78
2021/05/03 00:13:52;;;;;;;0.13;0.13;;;6.50;99.90;;;;;;5083011;28;20403;-77
2021/05/03 00:16:17;;;;;;;0.95;0.22;;;6.40;99.90;;;;;;5068609;28;20020;-78
2021/05/03 00:18:43;;;;;;;0.15;0.15;;;6.30;99.90;;;;;;5069123;28;20105;-77
2021/05/03 00:21:09;;;;;;;0.10;0.10;;;6.20;99.90;;;;;;5068244;28;20577;-78
2021/05/03 00:23:35;;;;;;;0.30;0.30;;;6.20;99.90;;;;;;5069135;28;20036;-77
2021/05/03 00:26:00;;;;;;;0.30;0.30;;;6.00;99.90;;;;;;5071001;28;20452;-77
2021/05/03 00:28:26;;;;;;;0.10;0.10;;;6.00;99.90;;;;;;5078229;28;20030;-77
2021/05/03 00:30:52;;;;;;;0.10;0.10;;;6.10;99.90;;;;;;5084377;28;20452;-77
2021/05/03 00:33:18;;;;;;;2.15;0.90;;;6.00;99.90;;;;;;5070123;28;20063;-77
2021/05/03 00:35:43;;;;;;;0.10;0.10;;;6.10;99.90;;;;;;5076803;28;20484;-77
2021/05/03 00:38:09;;;;;;;0.10;0.10;;;6.10;99.90;;;;;;5068383;28;20484;-78
2021/05/03 00:40:35;;;;;;;0.45;0.45;;;6.10;99.90;;;;;;5067519;28;20070;-77
2021/05/03 00:43:01;;;;;;;0.00;0.00;;;5.90;99.90;;;;;;5068829;28;20412;-78
2021/05/03 00:45:30;;;;;;;0.28;0.28;;;5.80;99.90;;;;;;5073690;28;20111;-78
2021/05/03 00:47:56;;;;;;;0.60;0.60;;;5.90;99.90;;;;;;5074623;28;20032;-77
2021/05/03 00:50:28;;;;;;;0.10;0.10;;;5.70;99.90;;;;;;5076030;28;20032;-78
2021/05/03 00:52:54;;;;;;;0.93;0.45;;;5.80;99.90;;;;;;5086179;28;20522;-77
2021/05/03 00:55:22;;;;;;;0.65;0.40;;;5.70;99.90;;;;;;5085599;28;20495;-77
2021/05/03 00:57:47;;;;;;;0.40;0.20;;;5.50;99.90;;;;;;5088140;28;20120;-78
2021/05/03 01:00:14;;;;;;;3.92;1.40;;;5.50;99.90;;;;;;5077224;28;20048;-78
2021/05/03 01:02:40;;;;;;;0.15;0.15;;;5.40;99.90;;;;;;5070764;28;20039;-78
2021/05/03 01:05:07;;;;;;;0.10;0.10;;;5.30;99.90;;;;;;5074706;28;20032;-77
2021/05/03 01:07:32;;;;;;;;;;;5.20;99.90;;;;;;5085184;28;20056;-77
2021/05/03 01:09:58;;;;;;;0.20;0.20;;;5.40;99.90;;;;;;5071647;28;19912;-78
2021/05/03 01:12:24;;;;;;;0.17;0.17;;;5.40;99.90;;;;;;5076055;28;20034;-77
2021/05/03 01:14:50;;;;;;;0.10;0.10;;;5.20;99.90;;;;;;5068708;28;20138;-77
2021/05/03 01:17:15;;;;;;;0.25;0.25;;;5.30;99.90;;;;;;5081420;28;20032;-78
2021/05/03 01:19:41;;;;;;;0.10;0.10;;;5.40;99.90;;;;;;5082844;28;20031;-78
2021/05/03 01:22:08;;;;;;;0.22;0.22;;;5.50;99.90;;;;;;5086667;28;20020;-78
2021/05/03 01:24:33;;;;;;;0.03;0.03;;;5.50;99.90;;;;;;5076424;28;20503;-78
2021/05/03 01:26:59;;;;;;;0.20;0.20;;;5.40;99.90;;;;;;5068132;28;20328;-77
2021/05/03 01:29:26;;;;;;;0.10;0.10;;;5.40;99.90;;;;;;5072012;28;20031;-78
2021/05/03 01:31:53;;;;;;;0.10;0.10;;;5.40;99.90;;;;;;5079071;28;20033;-78
2021/05/03 01:34:19;;;;;;;0.10;0.10;;;5.40;99.90;;;;;;5072353;28;20618;-78
2021/05/03 01:36:46;;;;;;;0.20;0.20;;;5.30;99.90;;;;;;5076099;28;20021;-78
2021/05/03 01:39:13;;;;;;;;;;;5.20;99.90;;;;;;5067315;28;20808;-77
2021/05/03 01:41:40;;;;;;;0.10;0.10;;;5.10;99.90;;;;;;5080855;28;19912;-77
2021/05/03 01:44:08;;;;;;;0.00;0.00;;;5.00;99.90;;;;;;5087243;28;20036;-77
2021/05/03 01:46:35;;;;;;;0.20;0.20;;;5.10;99.90;;;;;;5070377;28;20116;-78
2021/05/03 01:49:05;;;;;;;0.63;0.63;;;5.10;99.90;;;;;;5071631;28;20089;-78
2021/05/03 01:51:32;;;;;;;0.10;0.10;;;5.00;99.90;;;;;;5065940;28;20150;-78
2021/05/03 01:54:01;;;;;;;0.20;0.20;;;5.10;99.90;;;;;;5074727;28;20039;-77
2021/05/03 01:56:27;;;;;;;0.10;0.10;;;5.00;99.90;;;;;;5083839;28;20158;-77
2021/05/03 01:58:53;;;;;;;0.23;0.23;;;4.90;99.90;;;;;;5072353;28;20488;-78
2021/05/03 02:01:20;;;;;;;0.30;0.30;;;4.80;99.90;;;;;;5066631;28;20035;-78
2021/05/03 02:03:46;;;;;;;0.43;0.30;;;4.60;99.90;;;;;;5066534;28;20079;-80
2021/05/03 02:06:13;;;;;;;0.10;0.10;;;4.60;99.90;;;;;;5067211;28;20040;-78
2021/05/03 02:08:39;;;;;;;0.85;0.35;;;4.60;99.90;;;;;;5066092;28;20066;-77
2021/05/03 02:11:05;;;;;;;0.10;0.10;;;4.60;99.90;;;;;;5055614;28;20033;-78
2021/05/03 02:13:33;;;;;;;0.10;0.10;;;4.70;99.90;;;;;;5066011;28;20535;-77
2021/05/03 02:15:59;;;;;;;0.20;0.20;;;4.60;99.90;;;;;;5077223;28;20028;-78
2021/05/03 02:18:25;;;;;;;0.20;0.20;;;4.70;99.90;;;;;;5072785;28;20735;-77
2021/05/03 02:20:52;;;;;;;0.53;0.53;;;4.80;99.90;;;;;;5066458;28;20032;-77
2021/05/03 02:23:17;;;;;;;0.15;0.15;;;4.50;99.90;;;;;;5080416;28;20032;-78
2021/05/03 02:25:43;;;;;;;3.42;0.80;;;4.40;99.90;;;;;;5086944;28;20526;-78
2021/05/03 02:28:10;;;;;;;0.35;0.25;;;4.60;99.90;;;;;;5070469;28;20075;-77
2021/05/03 02:30:36;;;;;;;0.43;0.43;;;4.40;99.90;;;;;;5066454;28;20047;-78
2021/05/03 02:33:02;;;;;;;0.10;0.10;;;4.70;99.90;;;;;;5080666;28;20036;-78
2021/05/03 02:35:31;;;;;;;0.20;0.20;;;4.60;99.90;;;;;;5084815;28;20032;-77
2021/05/03 02:37:59;;;;;;;0.28;0.25;;;4.70;99.90;;;;;;5077907;28;20826;-78
2021/05/03 02:40:25;;;;;;;0.85;0.85;;;4.70;99.90;;;;;;5082567;28;20036;-77
2021/05/03 02:42:56;;;;;;;0.22;0.22;;;4.80;99.90;;;;;;5057094;28;20052;-77
2021/05/03 02:45:23;;;;;;;0.10;0.10;;;4.70;99.90;;;;;;5080615;28;20110;-80
2021/05/03 02:47:49;;;;;;;0.80;0.80;;;4.50;99.90;;;;;;5083697;28;20057;-77
2021/05/03 02:50:16;;;;;;;0.30;0.30;;;4.40;99.90;;;;;;5085755;28;20783;-77
2021/05/03 02:52:42;;;;;;;;;;;4.40;99.90;;;;;;5081306;28;20025;-77
2021/05/03 02:55:11;;;;;;;0.20;0.20;;;4.30;99.90;;;;;;5065174;28;19908;-77
2021/05/03 02:57:38;;;;;;;0.30;0.30;;;4.20;99.90;;;;;;5070628;28;20093;-79
2021/05/03 03:00:06;;;;;;;0.20;0.20;;;4.10;99.90;;;;;;5072576;28;20043;-79
2021/05/03 03:02:32;;;;;;;0.20;0.20;;;4.10;99.90;;;;;;5065774;28;20027;-80
2021/05/03 03:04:58;;;;;;;0.20;0.20;;;4.00;99.90;;;;;;5079318;28;20028;-79
2021/05/03 03:07:24;;;;;;;0.10;0.10;;;3.90;99.90;;;;;;5063658;28;20090;-80
2021/05/03 03:09:49;;;;;;;0.20;0.20;;;3.70;99.90;;;;;;5065669;28;20024;-79
2021/05/03 03:12:15;;;;;;;0.10;0.10;;;3.70;99.90;;;;;;5065326;28;20032;-79
2021/05/03 03:14:42;;;;;;;0.38;0.38;;;3.60;99.90;;;;;;5081738;28;20024;-79
2021/05/03 03:17:08;;;;;;;0.10;0.10;;;3.70;99.90;;;;;;5084457;28;20025;-79
2021/05/03 03:19:40;;;;;;;2.08;0.73;;;3.60;99.90;;;;;;5084708;28;20044;-80
2021/05/03 03:22:07;;;;;;;0.17;0.17;;;3.50;99.90;;;;;;5066921;28;20032;-79
2021/05/03 03:24:33;;;;;;;0.20;0.20;;;3.60;99.90;;;;;;5077420;28;20050;-78
2021/05/03 03:27:00;;;;;;;0.10;0.10;;;3.50;99.90;;;;;;5070217;28;20024;-80
2021/05/03 03:29:26;;;;;;;0.20;0.20;;;3.50;99.90;;;;;;5066775;28;20040;-79
2021/05/03 03:31:51;;;;;;;0.40;0.40;;;3.50;99.90;;;;;;5045870;28;20032;-79
2021/05/03 03:34:17;;;;;;;0.10;0.10;;;3.30;99.90;;;;;;5063751;28;20035;-80
2021/05/03 03:36:43;;;;;;;0.57;0.57;;;3.20;99.90;;;;;;5085718;28;20557;-79
2021/05/03 03:39:09;;;;;;;0.10;0.10;;;3.30;99.90;;;;;;5078963;28;20051;-79
2021/05/03 03:41:36;;;;;;;0.30;0.30;;;3.30;99.90;;;;;;5078242;28;20040;-79
2021/05/03 03:44:02;;;;;;;0.35;0.35;;;3.20;99.90;;;;;;5077565;28;20687;-79
2021/05/03 03:46:29;;;;;;;0.17;0.17;;;3.30;99.90;;;;;;5085273;28;20119;-79
2021/05/03 03:48:54;;;;;;;0.10;0.10;;;3.20;99.90;;;;;;5081591;28;20033;-79
2021/05/03 03:51:20;;;;;;;0.10;0.10;;;3.20;99.90;;;;;;5065186;28;20040;-79
2021/05/03 03:53:46;;;;;;;0.57;0.57;;;3.10;99.90;;;;;;5067985;28;20020;-79
2021/05/03 03:56:13;;;;;;;0.10;0.10;;;3.10;99.90;;;;;;5081228;28;20565;-80
2021/05/03 03:58:40;;;;;;;0.32;0.32;;;3.10;99.90;;;;;;5068056;28;20035;-80
2021/05/03 04:01:10;;;;;;;0.38;0.38;;;3.10;99.90;;;;;;5069761;28;21112;-80
2021/05/03 04:03:38;;;;;;;0.25;0.25;;;3.10;99.90;;;;;;5068798;28;20039;-80
2021/05/03 04:21:03;;;;;;;0.20;0.20;;;3.10;99.90;;;;;;5081499;28;20361;-81
2021/05/03 04:25:08;;;;;;;0.65;0.63;;;2.80;99.90;;;;;;5079169;28;20647;-80
2021/05/03 04:27:36;;;;;;;0.20;0.20;;;2.80;99.90;;;;;;5086456;28;20119;-81
2021/05/03 04:30:04;;;;;;;0.13;0.13;;;2.80;99.90;;;;;;5082022;28;20030;-80
2021/05/03 04:32:31;;;;;;;0.40;0.40;;;2.80;99.90;;;;;;5079551;28;20024;-81
2021/05/03 04:34:57;;;;;;;;;;;2.80;99.90;;;;;;5080076;28;20028;-80
2021/05/03 04:37:22;;;;;;;0.10;0.10;;;2.90;99.90;;;;;;5081817;28;20003;-81
2021/05/03 04:39:48;;;;;;;0.20;0.20;;;2.90;99.90;;;;;;5062718;28;20005;-80
2021/05/03 04:42:14;;;;;;;0.30;0.30;;;3.00;99.90;;;;;;5073655;28;20461;-80
2021/05/03 04:44:40;;;;;;;0.20;0.20;;;2.90;99.90;;;;;;5078644;28;20031;-80
2021/05/03 04:47:06;;;;;;;0.10;0.10;;;2.90;99.90;;;;;;5077600;28;20105;-80
2021/05/03 04:49:31;;;;;;;0.15;0.15;;;2.80;99.90;;;;;;5069913;28;20139;-80
2021/05/03 04:51:57;;;;;;;1.17;0.77;;;2.90;99.90;;;;;;5050136;28;20060;-81
2021/05/03 04:54:23;;;;;;;0.30;0.30;;;3.00;99.90;;;;;;5056304;28;20064;-80
2021/05/03 04:56:49;;;;;;;0.10;0.10;;;3.70;99.90;;;;;;5073677;28;20035;-80
2021/05/03 04:59:14;;;;;;;0.20;0.20;;;4.10;99.90;;;;;;5069350;28;20021;-81
2021/05/03 05:01:40;;;;;;;0.20;0.20;;;4.30;99.90;;;;;;5069800;28;20031;-81
2021/05/03 05:04:06;;;;;;;0.35;0.35;;;4.70;99.90;;;;;;5070237;28;20095;-81
2021/05/03 05:06:32;;;;;;;0.15;0.15;;;4.90;99.90;;;;;;5069407;28;20029;-81
2021/05/03 05:08:57;;;;;;;0.10;0.10;;;5.10;99.90;;;;;;5087060;28;20046;-81
2021/05/03 05:11:24;;;;;;;0.10;0.10;;;5.20;99.90;;;;;;5084463;28;20024;-81
2021/05/03 05:13:51;;;;;;;0.00;0.00;;;5.40;99.90;;;;;;5060248;28;20016;-81
2021/05/03 05:16:16;;;;;;;0.00;0.00;;;5.60;99.90;;;;;;5050380;28;20086;-81
2021/05/03 05:18:42;;;;;;;0.10;0.10;;;5.80;99.90;;;;;;5048731;28;20260;-81
2021/05/03 05:21:08;;;;;;;0.35;0.35;;;5.90;99.90;;;;;;5057301;28;20020;-81
2021/05/03 05:23:34;;;;;;;0.10;0.10;;;6.30;99.90;;;;;;5053902;28;20036;-79
2021/05/03 05:26:00;;;;;;;0.45;0.45;;;6.30;99.90;;;;;;5056312;28;20029;-81
2021/05/03 05:28:26;;;;;;;0.20;0.20;;;6.60;99.90;;;;;;5048552;28;20036;-81
2021/05/03 05:30:52;;;;;;;0.30;0.30;;;6.80;99.90;;;;;;5065630;28;20024;-82
2021/05/03 05:33:18;;;;;;;0.10;0.10;;;7.10;99.90;;;;;;5069937;28;20032;-82
2021/05/03 05:35:44;;;;;;;0.57;0.52;;;7.20;99.90;;;;;;5068807;28;20044;-81
2021/05/03 05:38:10;;;;;;;0.20;0.20;;;7.40;99.90;;;;;;5068815;28;20086;-82
2021/05/03 05:40:35;;;;;;;0.10;0.10;;;7.70;99.90;;;;;;5087081;28;20388;-79
2021/05/03 05:43:05;;;;;;;0.10;0.10;;;8.20;99.90;;;;;;5088340;28;20036;-81
2021/05/03 05:45:31;;;;;;;0.63;0.63;;;7.90;99.90;;;;;;5080258;28;20032;-81
2021/05/03 05:47:57;;;;;;;0.30;0.30;;;8.20;99.90;;;;;;5067305;28;20039;-80
2021/05/03 05:50:23;;;;;;;0.38;0.38;;;8.00;99.90;;;;;;5067806;28;20477;-81
2021/05/03 05:52:50;;;;;;;0.30;0.30;;;8.40;99.90;;;;;;5068690;28;20063;-80
2021/05/03 05:55:16;;;;;;;0.10;0.10;;;8.30;99.90;;;;;;5066664;28;20500;-81
2021/05/03 05:57:42;;;;;;;0.30;0.30;;;8.30;99.90;;;;;;5068270;28;20078;-80
2021/05/03 06:00:08;;;;;;;0.20;0.20;;;8.70;99.90;;;;;;5067446;28;20029;-81
2021/05/03 06:02:34;;;;;;;0.10;0.10;;;8.70;99.90;;;;;;5074270;28;20810;-81
2021/05/03 06:05:00;;;;;;;0.45;0.20;;;8.30;99.90;;;;;;5088539;28;20032;-81
2021/05/03 06:07:26;;;;;;;0.20;0.20;;;9.00;99.90;;;;;;5075638;28;20048;-81
2021/05/03 06:09:51;;;;;;;0.10;0.10;;;9.40;99.90;;;;;;5076231;28;20028;-81
2021/05/03 06:12:17;;;;;;;0.22;0.22;;;9.40;99.90;;;;;;5066832;28;20411;-80
2021/05/03 06:14:43;;;;;;;0.20;0.20;;;9.60;99.90;;;;;;5071896;28;20802;-80
2021/05/03 06:17:09;;;;;;;0.10;0.10;;;10.10;99.90;;;;;;5083998;28;20031;-80
2021/05/03 06:19:35;;;;;;;0.50;0.50;;;9.70;99.90;;;;;;5072572;28;20040;-81
2021/05/03 06:22:00;;;;;;;1.30;0.97;;;9.80;99.90;;;;;;5066606;28;20059;-81
2021/05/03 06:24:26;;;;;;;0.20;0.20;;;9.80;99.90;;;;;;5068610;28;20037;-83
2021/05/03 06:26:52;;;;;;;2.55;0.30;;;10.30;99.90;;;;;;5068274;28;20404;-82
2021/05/03 06:29:18;;;;;;;0.10;0.10;;;10.60;99.90;;;;;;5068473;28;20172;-82
2021/05/03 06:31:46;;;;;;;0.10;0.10;;;11.00;99.90;;;;;;5068978;28;20028;-82
2021/05/03 06:34:12;;;;;;;0.50;0.50;;;10.80;99.90;;;;;;5068512;28;20052;-82
2021/05/03 06:36:38;;;;;;;0.20;0.20;;;10.80;99.90;;;;;;5067359;28;20063;-82
2021/05/03 06:39:04;;;;;;;1.63;0.57;;;10.80;99.90;;;;;;5068569;28;20036;-83
2021/05/03 06:41:30;;;;;;;0.07;0.07;;;10.70;99.90;;;;;;5068666;28;20032;-83
2021/05/03 06:43:55;;;;;;;0.20;0.20;;;10.90;99.90;;;;;;5068587;28;20507;-83
2021/05/03 06:46:21;;;;;;;0.10;0.10;;;11.50;99.90;;;;;;5068316;28;20400;-82
2021/05/03 06:48:47;;;;;;;0.00;0.00;;;11.30;99.90;;;;;;5068702;28;20424;-83
2021/05/03 06:51:12;;;;;;;0.20;0.20;;;11.40;99.90;;;;;;5066903;28;20845;-83
2021/05/03 06:53:38;;;;;;;0.40;0.40;;;11.80;99.90;;;;;;5068367;28;20060;-83
2021/05/03 06:56:04;;;;;;;0.10;0.10;;;12.60;99.90;;;;;;5067044;28;20037;-83
2021/05/03 06:58:30;;;;;;;0.67;0.47;;;12.20;99.90;;;;;;5067977;28;20039;-83
2021/05/03 07:00:56;;;;;;;0.00;0.00;;;12.80;99.90;;;;;;5068052;28;20055;-80
2021/05/03 07:03:21;;;;;;;0.23;0.23;;;12.40;99.90;;;;;;5068036;28;20036;-80
2021/05/03 07:05:47;;;;;;;2.13;1.10;;;13.20;99.90;;;;;;5068136;28;20056;-80
2021/05/03 07:08:13;;;;;;;0.23;0.23;;;12.90;99.90;;;;;;5068072;28;20052;-81
2021/05/03 07:10:43;;;;;;;0.10;0.10;;;14.30;99.90;;;;;;5067915;28;20496;-81
2021/05/03 07:13:09;;;;;;;0.10;0.10;;;15.40;99.90;;;;;;5068398;28;20035;-81
2021/05/03 07:15:34;;;;;;;0.07;0.07;;;14.70;99.90;;;;;;5066539;28;20025;-81
2021/05/03 07:18:00;;;;;;;0.07;0.07;;;14.80;99.90;;;;;;5068208;28;20381;-81
2021/05/03 07:20:26;;;;;;;0.10;0.10;;;14.80;99.90;;;;;;5068030;28;20059;-81
2021/05/03 07:22:52;;;;;;;0.37;0.37;;;15.10;99.90;;;;;;5068043;28;20631;-81
2021/05/03 07:25:18;;;;;;;0.07;0.07;;;15.90;99.90;;;;;;5068073;28;20028;-81
2021/05/03 07:27:44;;;;;;;0.55;0.22;;;16.10;99.90;;;;;;5067541;28;20036;-81
2021/05/03 07:30:12;;;;;;;3.53;0.40;;;17.00;99.90;;;;;;5066373;28;20032;-81
2021/05/03 07:32:39;;;;;;;0.30;0.20;;;16.30;99.90;;;;;;5067671;28;20025;-81
2021/05/03 07:35:10;;;;;;;0.00;0.00;;;15.50;99.90;;;;;;5066523;28;20447;-81
2021/05/03 07:37:36;;;;;;;0.00;0.00;;;16.60;99.90;;;;;;5067772;28;20036;-81
2021/05/03 07:40:06;;;;;;;0.00;0.00;;;16.50;99.90;;;;;;5067954;28;20476;-81
2021/05/03 07:42:32;;;;;;;0.30;0.20;;;16.70;99.90;;;;;;5067803;28;20017;-81
2021/05/03 07:44:58;;;;;;;0.70;0.22;;;16.70;99.90;;;;;;5067640;28;20040;-81
2021/05/03 07:47:25;;;;;;;0.30;0.30;;;17.80;99.90;;;;;;5067750;28;20116;-81
2021/05/03 07:49:51;;;;;;;0.13;0.13;;;18.00;99.90;;;;;;5067657;28;20024;-81
2021/05/03 07:52:17;;;;;;;4.40;0.20;;;18.10;99.90;;;;;;5069984;28;20024;-81
2021/05/03 07:54:42;;;;;;;0.37;0.37;;;19.00;99.90;;;;;;5071157;28;20029;-80
2021/05/03 07:57:08;;;;;;;0.00;0.00;;;19.10;99.90;;;;;;5071405;28;20029;-81
2021/05/03 07:59:34;;;;;;;0.00;0.00;;;19.90;99.50;;;;;;5071339;28;20029;-81
2021/05/03 08:01:59;;;;;;;0.20;0.20;;;19.50;99.70;;;;;;5070974;28;20495;-80
2021/05/03 08:04:25;;;;;;;0.00;0.00;;;20.30;98.80;;;;;;5071094;28;20032;-81
2021/05/03 08:06:56;;;;;;;0.10;0.10;;;21.60;94.10;;;;;;5070958;28;20306;-81
2021/05/03 08:09:23;;;;;;;0.00;0.00;;;22.80;93.00;;;;;;5070797;28;20031;-81
2021/05/03 08:11:48;;;;;;;0.00;0.00;;;22.40;92.50;;;;;;5070786;28;20020;-81
2021/05/03 08:14:19;;;;;;;0.00;0.00;;;21.10;92.70;;;;;;5071109;28;20510;-81
2021/05/03 08:16:49;;;;;;;0.50;0.28;;;21.00;94.40;;;;;;5070732;28;20020;-81
2021/05/03 08:19:15;;;;;;;0.00;0.00;;;21.60;94.60;;;;;;5070839;28;20115;-81
2021/05/03 08:21:41;;;;;;;;;;;21.80;91.00;;;;;;5071077;28;20032;-81
2021/05/03 08:24:07;;;;;;;0.03;0.03;;;22.00;90.90;;;;;;5070375;28;19909;-81
2021/05/03 08:26:32;;;;;;;0.20;0.20;;;23.80;94.10;;;;;;5070648;28;20587;-81
2021/05/03 08:28:58;;;;;;;0.10;0.10;;;23.10;85.80;;;;;;5068634;28;20025;-81
2021/05/03 08:31:24;;;;;;;0.00;0.00;;;23.20;88.60;;;;;;5070434;28;20060;-81
2021/05/03 08:33:50;;;;;;;0.00;0.00;;;22.70;87.90;;;;;;5069152;28;20021;-82
2021/05/03 08:36:16;;;;;;;0.10;0.10;;;24.80;81.00;;;;;;5070693;28;20024;-82
2021/05/03 08:38:42;;;;;;;0.10;0.10;;;24.80;83.10;;;;;;5070559;28;20259;-81
2021/05/03 08:41:07;;;;;;;0.60;0.37;;;23.80;80.90;;;;;;5070469;28;20690;-82
2021/05/03 08:43:39;;;;;;;0.00;0.00;;;23.50;74.90;;;;;;5070696;28;20267;-82
2021/05/03 08:46:04;;;;;;;0.00;0.00;;;23.30;73.20;;;;;;5070564;28;20029;-82
2021/05/03 08:48:44;;;;;;;0.00;0.00;;;26.40;71.60;;;;;;5070649;28;20029;-81
2021/05/03 08:54:34;;;;;;;1.48;0.47;;;25.50;73.60;;;;;;5070827;28;20062;-82
2021/05/03 08:56:49;;;;;;;0.00;0.00;;;26.30;70.20;;;;;;5068414;28;20446;-82
2021/05/03 08:59:16;;;;;;;0.00;0.00;;;25.40;71.70;;;;;;5070000;28;20044;-82
2021/05/03 09:01:45;;;;;;;0.00;0.00;;;25.80;67.80;;;;;;5070163;28;20267;-81
2021/05/03 09:04:12;;;;;;;12.15;1.10;;;28.30;62.40;;;;;;5068692;28;20823;-81
2021/05/03 09:06:38;;;;;;;1.30;0.38;;;25.30;68.40;;;;;;5070130;28;20049;-81
2021/05/03 09:09:13;;;;;;;0.40;0.40;;;26.00;66.00;;;;;;5070101;28;20488;-81
2021/05/03 09:11:56;;;;;;;0.00;0.00;;;28.10;58.20;;;;;;5070470;28;20071;-81
2021/05/03 09:14:22;;;;;;;0.20;0.20;;;27.30;53.60;;;;;;5069943;28;20154;-81
2021/05/03 09:16:49;;;;;;;0.20;0.20;;;26.20;62.90;;;;;;5070246;28;20772;-82
2021/05/03 09:19:15;;;;;;;0.25;0.22;;;25.50;62.80;;;;;;5068161;28;20032;-82
2021/05/03 09:21:41;;;;;;;0.10;0.10;;;27.20;50.90;;;;;;5069716;28;20063;-81
2021/05/03 09:24:22;;;;;;;0.10;0.10;;;29.40;44.00;;;;;;5069738;28;20259;-82
2021/05/03 09:27:07;;;;;;;0.00;0.00;;;28.20;51.10;;;;;;5070008;28;20127;-82
2021/05/03 09:29:36;;;;;;;0.17;0.17;;;29.00;48.40;;;;;;5069457;28;20508;-81
2021/05/03 09:32:06;;;;;;;0.00;0.00;;;26.50;49.50;;;;;;5069783;28;20127;-81
2021/05/03 09:34:40;;;;;;;0.00;0.00;;;28.10;49.40;;;;;;5068080;28;20032;-81
2021/05/03 09:37:21;;;;;;;0.10;0.10;;;26.50;51.90;;;;;;5069845;28;20035;-82
2021/05/03 09:40:18;;;;;;;0.08;0.08;;;28.10;48.40;;;;;;5069481;28;20024;-81
2021/05/03 09:42:53;;;;;;;0.10;0.10;;;28.60;41.70;;;;;;5069737;28;20112;-81
2021/05/03 09:45:24;;;;;;;0.00;0.00;;;25.60;51.00;;;;;;5069353;28;20454;-81
2021/05/03 09:47:55;;;;;;;0.00;0.00;;;26.60;45.00;;;;;;5069606;28;20823;-81
2021/05/03 09:50:31;;;;;;;0.03;0.03;;;29.40;42.00;;;;;;5067424;28;20480;-81
2021/05/03 09:53:03;;;;;;;;;;;28.10;43.50;;;;;;5070314;28;20389;-82
2021/05/03 09:55:42;;;;;;;0.00;0.00;;;25.60;46.50;;;;;;5069438;28;19970;-82
2021/05/03 09:58:17;;;;;;;0.00;0.00;;;24.70;41.80;;;;;;5069633;28;20024;-82
2021/05/03 10:00:46;;;;;;;0.00;0.00;;;26.40;45.70;;;;;;5060402;28;20086;-81
2021/05/03 10:03:43;;;;;;;0.10;0.10;;;29.90;34.40;;;;;;5064102;28;20025;-81
2021/05/03 10:06:11;;;;;;;0.00;0.00;;;27.30;38.20;;;;;;5068235;28;20032;-81
2021/05/03 10:08:39;;;;;;;1.00;0.08;;;30.20;36.70;;;;;;5068904;28;20141;-81
2021/05/03 10:11:09;;;;;;;0.10;0.10;;;26.80;43.20;;;;;;5069894;28;20788;-81
2021/05/03 10:13:38;;;;;;;0.20;0.20;;;30.70;32.10;;;;;;5068715;28;20097;-82
2021/05/03 10:16:06;;;;;;;0.00;0.00;;;30.60;34.60;;;;;;5068141;28;20075;-82
2021/05/03 10:18:35;;;;;;;0.17;0.17;;;25.60;37.30;;;;;;5069111;28;20049;-81
2021/05/03 10:21:01;;;;;;;0.10;0.10;;;27.50;32.50;;;;;;5069400;28;20399;-82
2021/05/03 10:23:28;;;;;;;0.00;0.00;;;30.60;30.20;;;;;;5069329;28;20415;-81
2021/05/03 10:25:58;;;;;;;0.10;0.10;;;29.80;28.50;;;;;;5069165;28;20028;-81
2021/05/03 10:28:25;;;;;;;0.00;0.00;;;31.70;25.00;;;;;;5069107;28;20396;-81
2021/05/03 10:30:54;;;;;;;0.00;0.00;;;32.20;23.60;;;;;;5068600;28;20146;-81
2021/05/03 10:33:20;;;;;;;0.00;0.00;;;32.60;24.40;;;;;;5069030;28;20028;-82
2021/05/03 10:35:49;;;;;;;0.00;0.00;;;27.80;28.90;;;;;;5068510;28;20400;-81
2021/05/03 10:38:39;;;;;;;0.13;0.13;;;28.60;33.60;;;;;;5068834;28;20471;-81
2021/05/03 10:41:29;;;;;;;0.10;0.10;;;26.80;33.30;;;;;;5067291;28;20111;-81
2021/05/03 10:44:23;;;;;;;0.10;0.10;;;28.60;35.50;;;;;;5059337;28;20131;-81
2021/05/03 10:46:58;;;;;;;0.10;0.10;;;29.50;33.50;;;;;;5068394;28;20032;-81
2021/05/03 10:49:37;;;;;;;0.00;0.00;;;30.50;29.70;;;;;;5068604;28;20058;-81
2021/05/03 10:52:05;;;;;;;0.00;0.00;;;30.20;31.30;;;;;;5068765;28;20103;-81
2021/05/03 10:54:36;;;;;;;0.00;0.00;;;31.60;26.80;;;;;;5067179;28;20028;-82
2021/05/03 10:57:09;;;;;;;0.00;0.00;;;32.40;26.00;;;;;;5068455;28;20024;-81
2021/05/03 10:59:49;;;;;;;0.30;0.30;;;30.10;25.40;;;;;;5068738;28;20107;-81
2021/05/03 11:02:19;;;;;;;0.00;0.00;;;28.00;28.70;;;;;;5048786;28;20021;-81
2021/05/03 11:05:09;;;;;;;0.10;0.10;;;28.50;32.20;;;;;;5048459;28;20029;-81
2021/05/03 11:07:55;;;;;;;0.00;0.00;;;27.50;31.30;;;;;;5048221;28;20521;-81
2021/05/03 11:10:53;;;;;;;0.10;0.10;;;28.00;34.30;;;;;;5046872;28;20029;-82
2021/05/03 11:13:40;;;;;;;0.10;0.10;;;28.90;31.00;;;;;;5048469;28;20025;-81
2021/05/03 11:16:31;;;;;;;0.00;0.00;;;27.70;32.80;;;;;;5046674;28;20392;-80
2021/05/03 11:18:59;;;;;;;0.10;0.10;;;29.10;29.20;;;;;;5047891;28;20396;-81
2021/05/03 11:21:48;;;;;;;0.10;0.10;;;30.00;27.90;;;;;;5048278;28;20294;-81
2021/05/03 11:24:25;;;;;;;0.10;0.10;;;29.40;27.70;;;;;;5047623;28;20042;-81
2021/05/03 11:26:57;;;;;;;0.98;0.40;;;29.30;30.50;;;;;;5052086;28;20500;-80
2021/05/03 11:29:27;;;;;;;0.10;0.10;;;25.30;40.90;;;;;;5051986;28;20036;-81
2021/05/03 11:31:52;;;;;;;1.23;0.43;;;21.00;43.20;;;;;;5052379;28;20836;-81
2021/05/03 11:34:34;;;;;;;0.10;0.10;;;19.20;47.60;;;;;;5052104;28;20032;-81
2021/05/03 11:37:07;;;;;;;0.15;0.15;;;18.90;48.40;;;;;;5052235;28;20024;-81
2021/05/03 11:42:42;;;;;;;0.30;0.30;;;18.70;49.70;;;;;;5051832;28;20032;-81
2021/05/03 11:45:15;;;;;;;0.10;0.10;;;18.80;51.10;;;;;;5051716;28;20043;-80
2021/05/03 11:47:42;;;;;;;0.03;0.03;;;18.10;53.00;;;;;;5052139;28;20029;-81
2021/05/03 11:50:08;;;;;;;;;;;17.90;55.20;;;;;;5052535;28;20120;-81
2021/05/03 11:52:39;;;;;;;0.20;0.20;;;18.30;54.60;;;;;;5050908;28;19991;-81
2021/05/03 11:55:13;;;;;;;0.00;0.00;;;18.30;52.30;;;;;;5051857;28;20723;-80
2021/05/03 11:57:47;;;;;;;0.08;0.08;;;18.00;54.90;;;;;;5052070;28;20075;-80
2021/05/03 12:00:19;;;;;;;0.10;0.10;;;17.90;55.10;;;;;;5056473;28;20035;-80
2021/05/03 12:02:58;;;;;;;0.10;0.10;;;18.10;54.20;;;;;;5071605;28;20048;-80
2021/05/03 12:05:24;;;;;;;0.75;0.75;;;17.70;53.80;;;;;;5071591;28;20107;-81
2021/05/03 12:07:50;;;;;;;0.10;0.10;;;17.90;54.80;;;;;;5071602;28;20132;-81
2021/05/03 12:10:18;;;;;;;0.10;0.10;;;18.00;54.20;;;;;;5070081;28;20119;-80
2021/05/03 12:12:48;;;;;;;0.17;0.10;;;17.70;53.00;;;;;;5071554;28;20031;-80
2021/05/03 12:15:29;;;;;;;0.47;0.35;;;17.50;55.10;;;;;;5071489;28;20024;-81
2021/05/03 12:17:58;;;;;;;0.20;0.20;;;17.00;54.60;;;;;;5071883;28;20024;-81
2021/05/03 12:20:25;;;;;;;0.10;0.10;;;16.80;57.60;;;;;;5071571;28;20082;-81
2021/05/03 12:22:59;;;;;;;0.20;0.10;;;17.60;55.10;;;;;;5071586;28;20827;-81
2021/05/03 12:25:26;;;;;;;0.17;0.17;;;17.60;54.30;;;;;;5071461;28;20115;-80
2021/05/03 12:27:52;;;;;;;0.10;0.10;;;17.30;55.10;;;;;;5070276;28;20117;-81
2021/05/03 12:30:19;;;;;;;0.77;0.50;;;17.20;55.40;;;;;;5071027;28;20691;-80
2021/05/03 12:32:45;;;;;;;0.10;0.10;;;17.80;55.70;;;;;;5070987;28;20055;-80
2021/05/03 12:35:19;;;;;;;0.10;0.10;;;17.50;54.60;;;;;;5071029;28;20021;-80
2021/05/03 12:37:46;;;;;;;0.10;0.10;;;17.40;55.70;;;;;;5069500;28;20149;-80
2021/05/03 12:40:25;;;;;;;0.85;0.20;;;17.60;56.80;;;;;;5069705;28;20024;-81
2021/05/03 12:42:53;;;;;;;0.10;0.10;;;17.60;55.00;;;;;;5070951;28;20028;-80
2021/05/03 12:45:23;;;;;;;0.00;0.00;;;17.30;55.10;;;;;;5070892;28;20029;-81
2021/05/03 12:50:31;;;;;;;0.20;0.20;;;17.00;54.70;;;;;;5070738;28;20051;-80
2021/05/03 12:53:12;;;;;;;0.00;0.00;;;17.00;54.10;;;;;;5071132;28;20023;-81
2021/05/03 12:58:47;;;;;;;0.30;0.30;;;17.20;56.70;;;;;;5070814;28;20040;-81
2021/05/03 13:01:35;;;;;;;0.10;0.10;;;17.40;56.30;;;;;;5070810;28;20058;-81
2021/05/03 13:06:49;;;;;;;0.00;0.00;;;17.20;56.90;;;;;;5050627;28;20116;-81
2021/05/03 13:29:47;;;;;;;0.30;0.30;;;16.80;58.30;;;;;;5050150;28;20483;-80
2021/05/03 13:32:20;;;;;;;0.07;0.07;;;16.70;56.70;;;;;;5050535;28;20488;-80
2021/05/03 13:34:47;;;;;;;0.00;0.00;;;16.80;57.40;;;;;;5050079;28;20021;-80
2021/05/03 13:37:13;;;;;;;0.10;0.10;;;16.80;57.10;;;;;;5050499;28;20032;-80
2021/05/03 13:39:39;;;;;;;0.10;0.10;;;16.80;56.40;;;;;;5049900;28;20032;-80
2021/05/03 13:42:08;;;;;;;0.00;0.00;;;16.90;58.00;;;;;;5050064;28;20259;-81
2021/05/03 13:44:34;;;;;;;0.17;0.17;;;16.70;56.20;;;;;;5050240;28;20017;-81
2021/05/03 13:47:00;;;;;;;0.00;0.00;;;16.60;72.20;;;;;;5049460;28;20037;-81
2021/05/03 13:49:26;;;;;;;0.10;0.10;;;17.00;57.10;;;;;;5059111;28;20507;-81
2021/05/03 13:51:52;;;;;;;0.30;0.30;;;16.70;56.10;;;;;;5060030;28;20909;-82